sensor_id;sensor_type;location;lat;lon;timestamp;pressure;altitude;pressure_sealevel;temperature;humidity
36600;BME280;35385;55.668;37.508;2023-08-06T00:00:10;99559.16;;;24.48;100.00
36600;BME280;35385;55.668;37.508;2023-08-06T00:01:11;99541.13;;;24.40;100.00
36600;BME280;35385;55.668;37.508;2023-08-06T00:02:12;99545.94;;;24.45;100.00
36600;BME280;35385;55.668;37.508;2023-08-06T00:03:12;99548.81;;;24.56;100.00
36600;BME280;35385;55.668;37.508;2023-08-06T00:04:13;99571.69;;;24.62;100.00
36600;BME280;35385;55.668;37.508;2023-08-06T00:05:13;99562.88;;;24.60;100.00
36600;BME280;35385;55.668;37.508;2023-08-06T00:06:18;99549.53;;;24.45;100.00
36600;BME280;35385;55.668;37.508;2023-08-06T00:07:18;99551.19;;;24.46;100.00
36600;BME280;35385;55.668;37.508;2023-08-06T00:08:19;99566.94;;;24.51;100.00
36600;BME280;35385;55.668;37.508;2023-08-06T00:09:19;99565.88;;;24.52;100.00
36600;BME280;35385;55.668;37.508;2023-08-06T00:10:20;99574.06;;;24.52;100.00
36600;BME280;35385;55.668;37.508;2023-08-06T00:11:20;99571.34;;;24.45;100.00
36600;BME280;35385;55.668;37.508;2023-08-06T00:12:21;99526.97;;;24.18;100.00
36600;BME280;35385;55.668;37.508;2023-08-06T00:13:21;99562.53;;;24.43;100.00
36600;BME280;35385;55.668;37.508;2023-08-06T00:14:22;99565.06;;;24.45;100.00
36600;BME280;35385;55.668;37.508;2023-08-06T00:15:22;99566.09;;;24.50;100.00
36600;BME280;35385;55.668;37.508;2023-08-06T00:16:23;99568.59;;;24.52;100.00
36600;BME280;35385;55.668;37.508;2023-08-06T00:17:23;99574.31;;;24.44;100.00
36600;BME280;35385;55.668;37.508;2023-08-06T00:18:24;99576.41;;;24.42;100.00
36600;BME280;35385;55.668;37.508;2023-08-06T00:19:24;99578.72;;;24.45;100.00
36600;BME280;35385;55.668;37.508;2023-08-06T00:20:25;99554.22;;;24.31;100.00
36600;BME280;35385;55.668;37.508;2023-08-06T00:21:25;99574.72;;;24.41;100.00
36600;BME280;35385;55.668;37.508;2023-08-06T00:22:26;99547.50;;;24.27;100.00
36600;BME280;35385;55.668;37.508;2023-08-06T00:23:26;99574.34;;;24.37;100.00
36600;BME280;35385;55.668;37.508;2023-08-06T00:24:27;99536.22;;;24.17;100.00
36600;BME280;35385;55.668;37.508;2023-08-06T00:25:28;99565.50;;;24.42;100.00
36600;BME280;35385;55.668;37.508;2023-08-06T00:26:28;99563.03;;;24.27;100.00
36600;BME280;35385;55.668;37.508;2023-08-06T00:27:29;99563.88;;;24.27;100.00
36600;BME280;35385;55.668;37.508;2023-08-06T00:28:29;99570.59;;;24.31;100.00
36600;BME280;35385;55.668;37.508;2023-08-06T00:29:30;99570.59;;;24.31;100.00
36600;BME280;35385;55.668;37.508;2023-08-06T00:30:31;99577.09;;;24.30;100.00
36600;BME280;35385;55.668;37.508;2023-08-06T00:31:31;99571.00;;;24.35;100.00
36600;BME280;35385;55.668;37.508;2023-08-06T00:32:32;99575.44;;;24.29;100.00
36600;BME280;35385;55.668;37.508;2023-08-06T00:33:33;99576.25;;;24.37;100.00
36600;BME280;35385;55.668;37.508;2023-08-06T00:34:33;99570.09;;;24.41;100.00
36600;BME280;35385;55.668;37.508;2023-08-06T00:35:33;99550.88;;;24.29;100.00
36600;BME280;35385;55.668;37.508;2023-08-06T00:36:34;99566.81;;;24.33;100.00
36600;BME280;35385;55.668;37.508;2023-08-06T00:37:34;99577.72;;;24.33;100.00
36600;BME280;35385;55.668;37.508;2023-08-06T00:38:35;99585.09;;;24.25;100.00
36600;BME280;35385;55.668;37.508;2023-08-06T00:39:36;99573.59;;;24.23;100.00
36600;BME280;35385;55.668;37.508;2023-08-06T00:40:36;99569.56;;;24.26;100.00
36600;BME280;35385;55.668;37.508;2023-08-06T00:41:37;99577.34;;;24.22;100.00
36600;BME280;35385;55.668;37.508;2023-08-06T00:42:37;99578.63;;;24.13;100.00
36600;BME280;35385;55.668;37.508;2023-08-06T00:43:38;99582.81;;;24.16;100.00
36600;BME280;35385;55.668;37.508;2023-08-06T00:44:39;99587.84;;;24.12;100.00
36600;BME280;35385;55.668;37.508;2023-08-06T00:45:39;99570.28;;;23.95;100.00
36600;BME280;35385;55.668;37.508;2023-08-06T00:46:40;99580.34;;;24.01;100.00
36600;BME280;35385;55.668;37.508;2023-08-06T00:47:41;99578.44;;;24.08;100.00
36600;BME280;35385;55.668;37.508;2023-08-06T00:48:42;99565.91;;;23.94;100.00
36600;BME280;35385;55.668;37.508;2023-08-06T00:49:43;99584.97;;;24.01;100.00
36600;BME280;35385;55.668;37.508;2023-08-06T00:50:43;99575.72;;;24.02;100.00
36600;BME280;35385;55.668;37.508;2023-08-06T00:51:44;99578.72;;;23.93;100.00
36600;BME280;35385;55.668;37.508;2023-08-06T00:52:45;99579.34;;;23.89;100.00
36600;BME280;35385;55.668;37.508;2023-08-06T00:53:46;99581.00;;;23.90;100.00
36600;BME280;35385;55.668;37.508;2023-08-06T00:54:47;99571.38;;;23.81;100.00
36600;BME280;35385;55.668;37.508;2023-08-06T00:55:48;99585.44;;;23.84;100.00
36600;BME280;35385;55.668;37.508;2023-08-06T00:56:49;99590.03;;;23.84;100.00
36600;BME280;35385;55.668;37.508;2023-08-06T00:57:49;99574.75;;;23.76;100.00
36600;BME280;35385;55.668;37.508;2023-08-06T00:58:52;99578.13;;;23.78;100.00
36600;BME280;35385;55.668;37.508;2023-08-06T00:59:53;99584.59;;;23.84;100.00
36600;BME280;35385;55.668;37.508;2023-08-06T01:00:54;99590.88;;;23.84;100.00
36600;BME280;35385;55.668;37.508;2023-08-06T01:01:55;99580.63;;;23.73;100.00
36600;BME280;35385;55.668;37.508;2023-08-06T01:02:55;99578.34;;;23.77;100.00
36600;BME280;35385;55.668;37.508;2023-08-06T01:03:57;99581.69;;;23.79;100.00
36600;BME280;35385;55.668;37.508;2023-08-06T01:04:57;99564.91;;;23.75;100.00
36600;BME280;35385;55.668;37.508;2023-08-06T01:05:58;99585.44;;;23.84;100.00
36600;BME280;35385;55.668;37.508;2023-08-06T01:11:17;99586.94;;;23.80;100.00
36600;BME280;35385;55.668;37.508;2023-08-06T01:12:30;99592.59;;;23.79;100.00
36600;BME280;35385;55.668;37.508;2023-08-06T01:13:42;99593.84;;;23.76;100.00
36600;BME280;35385;55.668;37.508;2023-08-06T01:15:07;99597.63;;;23.75;100.00
36600;BME280;35385;55.668;37.508;2023-08-06T01:16:09;99593.22;;;23.68;100.00
36600;BME280;35385;55.668;37.508;2023-08-06T01:17:11;99589.47;;;23.62;100.00
36600;BME280;35385;55.668;37.508;2023-08-06T01:18:12;99582.78;;;23.65;100.00
36600;BME280;35385;55.668;37.508;2023-08-06T01:19:19;99593.00;;;23.76;100.00
36600;BME280;35385;55.668;37.508;2023-08-06T01:20:20;99590.50;;;23.68;100.00
36600;BME280;35385;55.668;37.508;2023-08-06T01:21:21;99584.63;;;23.71;100.00
36600;BME280;35385;55.668;37.508;2023-08-06T01:22:21;99567.84;;;23.74;100.00
36600;BME280;35385;55.668;37.508;2023-08-06T01:23:22;99578.50;;;23.82;100.00
36600;BME280;35385;55.668;37.508;2023-08-06T01:24:23;99558.00;;;23.73;100.00
36600;BME280;35385;55.668;37.508;2023-08-06T01:25:30;99575.34;;;23.85;100.00
36600;BME280;35385;55.668;37.508;2023-08-06T01:26:45;99560.72;;;23.73;100.00
36600;BME280;35385;55.668;37.508;2023-08-06T01:27:49;99590.91;;;23.78;100.00
36600;BME280;35385;55.668;37.508;2023-08-06T01:30:02;99582.50;;;23.86;100.00
36600;BME280;35385;55.668;37.508;2023-08-06T01:31:07;99562.59;;;23.79;100.00
36600;BME280;35385;55.668;37.508;2023-08-06T01:32:11;99585.84;;;23.81;100.00
36600;BME280;35385;55.668;37.508;2023-08-06T01:33:16;99590.47;;;23.81;100.00
36600;BME280;35385;55.668;37.508;2023-08-06T01:34:24;99595.75;;;23.76;100.00
36600;BME280;35385;55.668;37.508;2023-08-06T01:35:27;99601.41;;;23.74;100.00
36600;BME280;35385;55.668;37.508;2023-08-06T01:36:30;99588.41;;;23.70;100.00
36600;BME280;35385;55.668;37.508;2023-08-06T01:37:31;99597.63;;;23.69;100.00
36600;BME280;35385;55.668;37.508;2023-08-06T01:38:33;99576.47;;;23.57;100.00
36600;BME280;35385;55.668;37.508;2023-08-06T01:39:33;99588.81;;;23.67;100.00
36600;BME280;35385;55.668;37.508;2023-08-06T01:40:34;99596.41;;;23.65;100.00
36600;BME280;35385;55.668;37.508;2023-08-06T01:41:35;99592.63;;;23.52;100.00
36600;BME280;35385;55.668;37.508;2023-08-06T01:42:35;99602.06;;;23.50;100.00
36600;BME280;35385;55.668;37.508;2023-08-06T01:43:36;99607.50;;;23.56;100.00
36600;BME280;35385;55.668;37.508;2023-08-06T01:44:36;99602.69;;;23.52;100.00
36600;BME280;35385;55.668;37.508;2023-08-06T01:45:37;99602.25;;;23.55;100.00
36600;BME280;35385;55.668;37.508;2023-08-06T01:46:37;99588.44;;;23.37;100.00
36600;BME280;35385;55.668;37.508;2023-08-06T01:47:38;99601.00;;;23.38;100.00
36600;BME280;35385;55.668;37.508;2023-08-06T01:48:39;99606.44;;;23.38;100.00
36600;BME280;35385;55.668;37.508;2023-08-06T01:49:39;99591.56;;;23.27;100.00
36600;BME280;35385;55.668;37.508;2023-08-06T01:50:40;99614.84;;;23.43;100.00
36600;BME280;35385;55.668;37.508;2023-08-06T01:51:40;99611.28;;;23.42;100.00
36600;BME280;35385;55.668;37.508;2023-08-06T01:52:41;99606.88;;;23.41;100.00
36600;BME280;35385;55.668;37.508;2023-08-06T01:53:41;99616.31;;;23.32;100.00
36600;BME280;35385;55.668;37.508;2023-08-06T01:54:42;99617.78;;;23.35;100.00
36600;BME280;35385;55.668;37.508;2023-08-06T01:55:47;99615.25;;;23.33;100.00
36600;BME280;35385;55.668;37.508;2023-08-06T01:56:48;99612.31;;;23.28;100.00
36600;BME280;35385;55.668;37.508;2023-08-06T01:57:48;99596.38;;;23.12;100.00
36600;BME280;35385;55.668;37.508;2023-08-06T01:58:49;99616.09;;;23.20;100.00
36600;BME280;35385;55.668;37.508;2023-08-06T01:59:49;99617.78;;;23.28;100.00
36600;BME280;35385;55.668;37.508;2023-08-06T02:00:50;99612.13;;;23.16;100.00
36600;BME280;35385;55.668;37.508;2023-08-06T02:01:50;99612.53;;;23.20;100.00
36600;BME280;35385;55.668;37.508;2023-08-06T02:02:51;99618.63;;;23.22;100.00
36600;BME280;35385;55.668;37.508;2023-08-06T02:03:51;99599.97;;;23.19;100.00
36600;BME280;35385;55.668;37.508;2023-08-06T02:04:52;99619.44;;;23.29;100.00
36600;BME280;35385;55.668;37.508;2023-08-06T02:05:52;99619.03;;;23.19;100.00
36600;BME280;35385;55.668;37.508;2023-08-06T02:06:53;99625.97;;;23.21;100.00
36600;BME280;35385;55.668;37.508;2023-08-06T02:07:54;99629.09;;;23.25;100.00
36600;BME280;35385;55.668;37.508;2023-08-06T02:08:54;99630.75;;;23.26;100.00
36600;BME280;35385;55.668;37.508;2023-08-06T02:09:55;99621.94;;;23.24;100.00
36600;BME280;35385;55.668;37.508;2023-08-06T02:10:55;99622.38;;;23.27;100.00
36600;BME280;35385;55.668;37.508;2023-08-06T02:11:56;99621.56;;;23.20;100.00
36600;BME280;35385;55.668;37.508;2023-08-06T02:12:56;99620.09;;;23.31;100.00
36600;BME280;35385;55.668;37.508;2023-08-06T02:13:57;99614.41;;;23.39;100.00
36600;BME280;35385;55.668;37.508;2023-08-06T02:14:57;99611.06;;;23.44;100.00
36600;BME280;35385;55.668;37.508;2023-08-06T02:15:58;99612.13;;;23.36;100.00
36600;BME280;35385;55.668;37.508;2023-08-06T02:16:58;99615.25;;;23.46;100.00
36600;BME280;35385;55.668;37.508;2023-08-06T02:17:59;99612.31;;;23.41;100.00
36600;BME280;35385;55.668;37.508;2023-08-06T02:19:19;99606.44;;;23.44;100.00
36600;BME280;35385;55.668;37.508;2023-08-06T02:20:20;99619.47;;;23.55;100.00
36600;BME280;35385;55.668;37.508;2023-08-06T02:21:20;99615.91;;;23.61;100.00
36600;BME280;35385;55.668;37.508;2023-08-06T02:22:21;99613.81;;;23.64;100.00
36600;BME280;35385;55.668;37.508;2023-08-06T02:23:21;99619.06;;;23.65;100.00
36600;BME280;35385;55.668;37.508;2023-08-06T02:24:22;99618.59;;;23.68;100.00
36600;BME280;35385;55.668;37.508;2023-08-06T02:25:22;99627.00;;;23.73;100.00
36600;BME280;35385;55.668;37.508;2023-08-06T02:26:23;99594.31;;;23.60;100.00
36600;BME280;35385;55.668;37.508;2023-08-06T02:27:23;99632.44;;;23.67;100.00
36600;BME280;35385;55.668;37.508;2023-08-06T02:28:24;99612.34;;;23.54;100.00
36600;BME280;35385;55.668;37.508;2023-08-06T02:29:24;99634.34;;;23.59;100.00
36600;BME280;35385;55.668;37.508;2023-08-06T02:30:25;99632.47;;;23.60;100.00
36600;BME280;35385;55.668;37.508;2023-08-06T02:31:25;99624.47;;;23.45;100.00
36600;BME280;35385;55.668;37.508;2023-08-06T02:32:26;99594.72;;;23.24;100.00
36600;BME280;35385;55.668;37.508;2023-08-06T02:33:26;99635.19;;;23.47;100.00
36600;BME280;35385;55.668;37.508;2023-08-06T02:34:27;99632.03;;;23.43;100.00
36600;BME280;35385;55.668;37.508;2023-08-06T02:35:27;99637.91;;;23.34;100.00
36600;BME280;35385;55.668;37.508;2023-08-06T02:36:28;99618.59;;;23.28;100.00
36600;BME280;35385;55.668;37.508;2023-08-06T02:37:29;99613.59;;;23.19;100.00
36600;BME280;35385;55.668;37.508;2023-08-06T02:38:31;99648.59;;;23.35;100.00
36600;BME280;35385;55.668;37.508;2023-08-06T02:39:31;99624.06;;;23.22;100.00
36600;BME280;35385;55.668;37.508;2023-08-06T02:40:33;99637.91;;;23.34;100.00
36600;BME280;35385;55.668;37.508;2023-08-06T02:41:34;99637.25;;;23.25;100.00
36600;BME280;35385;55.668;37.508;2023-08-06T02:42:34;99637.69;;;23.22;100.00
36600;BME280;35385;55.668;37.508;2023-08-06T02:43:35;99630.34;;;23.16;100.00
36600;BME280;35385;55.668;37.508;2023-08-06T02:44:35;99654.25;;;23.27;100.00
36600;BME280;35385;55.668;37.508;2023-08-06T02:45:36;99644.59;;;23.31;100.00
36600;BME280;35385;55.668;37.508;2023-08-06T02:46:36;99639.13;;;23.24;100.00
36600;BME280;35385;55.668;37.508;2023-08-06T02:47:37;99639.78;;;23.26;100.00
36600;BME280;35385;55.668;37.508;2023-08-06T02:48:37;99627.00;;;23.14;100.00
36600;BME280;35385;55.668;37.508;2023-08-06T02:49:38;99641.88;;;23.18;100.00
36600;BME280;35385;55.668;37.508;2023-08-06T02:50:39;99651.09;;;23.23;100.00
36600;BME280;35385;55.668;37.508;2023-08-06T02:51:40;99638.53;;;23.16;100.00
36600;BME280;35385;55.668;37.508;2023-08-06T02:52:41;99639.56;;;23.28;100.00
36600;BME280;35385;55.668;37.508;2023-08-06T02:53:41;99639.56;;;23.28;100.00
36600;BME280;35385;55.668;37.508;2023-08-06T02:54:42;99641.69;;;23.33;100.00
36600;BME280;35385;55.668;37.508;2023-08-06T02:55:46;99646.72;;;23.36;100.00
36600;BME280;35385;55.668;37.508;2023-08-06T02:56:50;99643.78;;;23.31;100.00
36600;BME280;35385;55.668;37.508;2023-08-06T02:57:51;99611.91;;;23.24;100.00
36600;BME280;35385;55.668;37.508;2023-08-06T02:58:51;99639.97;;;23.38;100.00
36600;BME280;35385;55.668;37.508;2023-08-06T02:59:52;99632.47;;;23.34;100.00
36600;BME280;35385;55.668;37.508;2023-08-06T03:01:00;99630.34;;;23.42;100.00
36600;BME280;35385;55.668;37.508;2023-08-06T03:02:00;99628.69;;;23.35;100.00
36600;BME280;35385;55.668;37.508;2023-08-06T03:03:01;99625.31;;;23.39;100.00
36600;BME280;35385;55.668;37.508;2023-08-06T03:04:02;99633.28;;;23.34;100.00
36600;BME280;35385;55.668;37.508;2023-08-06T03:05:03;99632.03;;;23.43;100.00
36600;BME280;35385;55.668;37.508;2023-08-06T03:06:04;99622.38;;;23.47;100.00
36600;BME280;35385;55.668;37.508;2023-08-06T03:07:04;99612.31;;;23.41;100.00
36600;BME280;35385;55.668;37.508;2023-08-06T03:08:05;99625.31;;;23.46;100.00
36600;BME280;35385;55.668;37.508;2023-08-06T03:09:05;99627.41;;;23.50;100.00
36600;BME280;35385;55.668;37.508;2023-08-06T03:10:06;99614.00;;;23.49;100.00
36600;BME280;35385;55.668;37.508;2023-08-06T03:11:07;99616.53;;;23.50;100.00
36600;BME280;35385;55.668;37.508;2023-08-06T03:12:07;99626.19;;;23.59;100.00
36600;BME280;35385;55.668;37.508;2023-08-06T03:13:08;99600.59;;;23.47;100.00
36600;BME280;35385;55.668;37.508;2023-08-06T03:14:09;99615.06;;;23.54;100.00
36600;BME280;35385;55.668;37.508;2023-08-06T03:15:09;99626.59;;;23.56;100.00
36600;BME280;35385;55.668;37.508;2023-08-06T03:16:10;99620.09;;;23.57;100.00
36600;BME280;35385;55.668;37.508;2023-08-06T03:17:10;99624.09;;;23.61;100.00
36600;BME280;35385;55.668;37.508;2023-08-06T03:18:11;99624.91;;;23.55;100.00
36600;BME280;35385;55.668;37.508;2023-08-06T03:19:11;99622.00;;;23.64;100.00
36600;BME280;35385;55.668;37.508;2023-08-06T03:20:12;99602.25;;;23.48;100.00
36600;BME280;35385;55.668;37.508;2023-08-06T03:21:12;99621.13;;;23.56;100.00
36600;BME280;35385;55.668;37.508;2023-08-06T03:22:13;99620.94;;;23.65;100.00
36600;BME280;35385;55.668;37.508;2023-08-06T03:23:13;99592.19;;;23.55;100.00
36600;BME280;35385;55.668;37.508;2023-08-06T03:24:14;99621.53;;;23.73;100.00
36600;BME280;35385;55.668;37.508;2023-08-06T03:25:14;99617.97;;;23.73;100.00
36600;BME280;35385;55.668;37.508;2023-08-06T03:26:15;99625.31;;;23.79;100.00
36600;BME280;35385;55.668;37.508;2023-08-06T03:27:16;99623.63;;;23.78;100.00
36600;BME280;35385;55.668;37.508;2023-08-06T03:28:16;99626.78;;;23.75;100.00
36600;BME280;35385;55.668;37.508;2023-08-06T03:29:17;99605.19;;;23.67;100.00
36600;BME280;35385;55.668;37.508;2023-08-06T03:30:17;99611.25;;;23.69;100.00
36600;BME280;35385;55.668;37.508;2023-08-06T03:31:18;99625.69;;;23.82;100.00
36600;BME280;35385;55.668;37.508;2023-08-06T03:32:18;99627.81;;;23.87;100.00
36600;BME280;35385;55.668;37.508;2023-08-06T03:33:19;99627.81;;;23.87;100.00
36600;BME280;35385;55.668;37.508;2023-08-06T03:34:19;99604.56;;;23.78;100.00
36600;BME280;35385;55.668;37.508;2023-08-06T03:35:20;99622.53;;;23.98;100.00
36600;BME280;35385;55.668;37.508;2023-08-06T03:36:20;99629.03;;;24.04;100.00
36600;BME280;35385;55.668;37.508;2023-08-06T03:37:22;99623.34;;;24.06;100.00
36600;BME280;35385;55.668;37.508;2023-08-06T03:38:22;99620.22;;;24.02;100.00
36600;BME280;35385;55.668;37.508;2023-08-06T03:39:23;99609.09;;;23.97;100.00
36600;BME280;35385;55.668;37.508;2023-08-06T03:40:23;99620.63;;;24.06;100.00
36600;BME280;35385;55.668;37.508;2023-08-06T03:41:24;99624.38;;;24.11;100.00
36600;BME280;35385;55.668;37.508;2023-08-06T03:42:24;99625.00;;;24.13;100.00
36600;BME280;35385;55.668;37.508;2023-08-06T03:43:25;99596.28;;;23.97;100.00
36600;BME280;35385;55.668;37.508;2023-08-06T03:44:25;99627.94;;;24.18;100.00
36600;BME280;35385;55.668;37.508;2023-08-06T03:45:27;99616.59;;;24.21;100.00
36600;BME280;35385;55.668;37.508;2023-08-06T03:46:27;99618.47;;;24.21;100.00
36600;BME280;35385;55.668;37.508;2023-08-06T03:47:28;99624.13;;;24.33;100.00
36600;BME280;35385;55.668;37.508;2023-08-06T03:48:29;99621.59;;;24.38;100.00
36600;BME280;35385;55.668;37.508;2023-08-06T03:49:29;99626.78;;;24.46;100.00
36600;BME280;35385;55.668;37.508;2023-08-06T03:50:30;99625.53;;;24.48;100.00
36600;BME280;35385;55.668;37.508;2023-08-06T03:51:30;99603.09;;;24.40;100.00
36600;BME280;35385;55.668;37.508;2023-08-06T03:52:31;99625.03;;;24.58;100.00
36600;BME280;35385;55.668;37.508;2023-08-06T03:53:31;99627.53;;;24.66;100.00
36600;BME280;35385;55.668;37.508;2023-08-06T03:54:32;99627.13;;;24.62;100.00
36600;BME280;35385;55.668;37.508;2023-08-06T03:55:32;99619.94;;;24.68;100.00
36600;BME280;35385;55.668;37.508;2023-08-06T03:56:33;99618.06;;;24.68;100.00
36600;BME280;35385;55.668;37.508;2023-08-06T03:57:33;99622.44;;;24.76;100.00
36600;BME280;35385;55.668;37.508;2023-08-06T03:58:34;99622.47;;;24.70;100.00
36600;BME280;35385;55.668;37.508;2023-08-06T03:59:34;99601.94;;;24.60;100.00
36600;BME280;35385;55.668;37.508;2023-08-06T04:00:35;99623.28;;;24.77;100.00
36600;BME280;35385;55.668;37.508;2023-08-06T04:01:35;99601.44;;;24.70;100.00
36600;BME280;35385;55.668;37.508;2023-08-06T04:02:36;99608.59;;;24.71;100.00
36600;BME280;35385;55.668;37.508;2023-08-06T04:03:36;99616.34;;;24.74;100.00
36600;BME280;35385;55.668;37.508;2023-08-06T04:04:37;99598.09;;;24.68;100.00
36600;BME280;35385;55.668;37.508;2023-08-06T04:05:37;99621.91;;;24.92;100.00
36600;BME280;35385;55.668;37.508;2023-08-06T04:06:38;99618.56;;;24.90;100.00
36600;BME280;35385;55.668;37.508;2023-08-06T04:07:39;99623.34;;;25.01;100.00
36600;BME280;35385;55.668;37.508;2023-08-06T04:08:39;99629.44;;;25.04;100.00
36600;BME280;35385;55.668;37.508;2023-08-06T04:09:57;99628.50;;;25.16;100.00
36600;BME280;35385;55.668;37.508;2023-08-06T04:10:58;99625.00;;;25.09;100.00
36600;BME280;35385;55.668;37.508;2023-08-06T04:11:58;99621.75;;;25.19;100.00
36600;BME280;35385;55.668;37.508;2023-08-06T04:13:01;99602.72;;;25.06;100.00
36600;BME280;35385;55.668;37.508;2023-08-06T04:14:02;99626.31;;;25.25;100.00
36600;BME280;35385;55.668;37.508;2023-08-06T04:15:03;99625.88;;;25.28;100.00
36600;BME280;35385;55.668;37.508;2023-08-06T04:16:05;99624.56;;;25.37;100.00
36600;BME280;35385;55.668;37.508;2023-08-06T04:17:05;99632.47;;;25.45;100.00
36600;BME280;35385;55.668;37.508;2023-08-06T04:18:06;99578.63;;;25.21;100.00
36600;BME280;35385;55.668;37.508;2023-08-06T04:19:06;99617.91;;;25.51;100.00
36600;BME280;35385;55.668;37.508;2023-08-06T04:20:07;99611.91;;;25.61;100.00
36600;BME280;35385;55.668;37.508;2023-08-06T04:21:08;99624.03;;;25.71;100.00
36600;BME280;35385;55.668;37.508;2023-08-06T04:22:08;99616.44;;;25.74;100.00
36600;BME280;35385;55.668;37.508;2023-08-06T04:23:09;99615.56;;;25.80;100.00
36600;BME280;35385;55.668;37.508;2023-08-06T04:24:09;99612.34;;;25.83;100.00
36600;BME280;35385;55.668;37.508;2023-08-06T04:25:10;99613.75;;;25.92;100.00
36600;BME280;35385;55.668;37.508;2023-08-06T04:26:10;99621.78;;;26.05;100.00
36600;BME280;35385;55.668;37.508;2023-08-06T04:27:12;99622.25;;;26.02;100.00
36600;BME280;35385;55.668;37.508;2023-08-06T04:28:12;99614.19;;;26.07;100.00
36600;BME280;35385;55.668;37.508;2023-08-06T04:29:13;99596.09;;;26.06;100.00
36600;BME280;35385;55.668;37.508;2023-08-06T04:30:14;99612.97;;;26.21;100.00
36600;BME280;35385;55.668;37.508;2023-08-06T04:31:15;99624.03;;;26.33;100.00
36600;BME280;35385;55.668;37.508;2023-08-06T04:32:15;99619.53;;;26.38;100.00
36600;BME280;35385;55.668;37.508;2023-08-06T04:33:16;99609.16;;;26.40;100.00
36600;BME280;35385;55.668;37.508;2023-08-06T04:34:16;99610.53;;;26.50;100.00
36600;BME280;35385;55.668;37.508;2023-08-06T04:35:17;99606.50;;;26.52;100.00
36600;BME280;35385;55.668;37.508;2023-08-06T04:36:17;99613.72;;;26.47;100.00
36600;BME280;35385;55.668;37.508;2023-08-06T04:37:18;99590.53;;;26.49;100.00
36600;BME280;35385;55.668;37.508;2023-08-06T04:38:18;99601.91;;;26.64;100.00
36600;BME280;35385;55.668;37.508;2023-08-06T04:39:19;99589.13;;;26.58;100.00
36600;BME280;35385;55.668;37.508;2023-08-06T04:40:19;99609.56;;;26.74;100.00
36600;BME280;35385;55.668;37.508;2023-08-06T04:41:20;99618.53;;;26.81;100.00
36600;BME280;35385;55.668;37.508;2023-08-06T04:42:20;99564.28;;;26.41;100.00
36600;BME280;35385;55.668;37.508;2023-08-06T04:43:21;99619.47;;;26.87;100.00
36600;BME280;35385;55.668;37.508;2023-08-06T04:44:22;99613.50;;;26.96;100.00
36600;BME280;35385;55.668;37.508;2023-08-06T04:45:22;99614.66;;;27.00;100.00
36600;BME280;35385;55.668;37.508;2023-08-06T04:46:24;99608.47;;;26.93;100.00
36600;BME280;35385;55.668;37.508;2023-08-06T04:47:25;99592.63;;;26.95;100.00
36600;BME280;35385;55.668;37.508;2023-08-06T04:48:26;99611.50;;;27.15;100.00
36600;BME280;35385;55.668;37.508;2023-08-06T04:49:26;99610.78;;;27.20;100.00
36600;BME280;35385;55.668;37.508;2023-08-06T04:50:27;99588.72;;;27.15;100.00
36600;BME280;35385;55.668;37.508;2023-08-06T04:51:30;99613.31;;;27.33;100.00
36600;BME280;35385;55.668;37.508;2023-08-06T04:52:31;99610.44;;;27.28;100.00
36600;BME280;35385;55.668;37.508;2023-08-06T04:53:32;99601.63;;;27.26;100.00
36600;BME280;35385;55.668;37.508;2023-08-06T04:54:33;99615.72;;;27.41;100.00
36600;BME280;35385;55.668;37.508;2023-08-06T04:55:34;99620.03;;;27.60;100.00
36600;BME280;35385;55.668;37.508;2023-08-06T04:56:34;99613.84;;;27.76;100.00
36600;BME280;35385;55.668;37.508;2023-08-06T04:57:35;99610.03;;;27.77;100.00
36600;BME280;35385;55.668;37.508;2023-08-06T04:58:35;99607.88;;;27.79;100.00
36600;BME280;35385;55.668;37.508;2023-08-06T04:59:36;99612.78;;;27.77;100.00
36600;BME280;35385;55.668;37.508;2023-08-06T05:00:37;99614.69;;;27.77;100.00
36600;BME280;35385;55.668;37.508;2023-08-06T05:01:37;99601.31;;;27.80;100.00
36600;BME280;35385;55.668;37.508;2023-08-06T05:02:38;99618.81;;;28.03;100.00
36600;BME280;35385;55.668;37.508;2023-08-06T05:03:38;99610.69;;;28.08;100.00
36600;BME280;35385;55.668;37.508;2023-08-06T05:04:39;99586.47;;;28.05;100.00
36600;BME280;35385;55.668;37.508;2023-08-06T05:05:40;99558.47;;;27.91;100.00
36600;BME280;35385;55.668;37.508;2023-08-06T05:06:41;99561.72;;;27.76;100.00
36600;BME280;35385;55.668;37.508;2023-08-06T05:07:42;99612.84;;;28.06;100.00
36600;BME280;35385;55.668;37.508;2023-08-06T05:08:43;99608.78;;;28.20;100.00
36600;BME280;35385;55.668;37.508;2023-08-06T05:09:43;99615.19;;;28.37;100.00
36600;BME280;35385;55.668;37.508;2023-08-06T05:10:45;99613.25;;;28.49;100.00
36600;BME280;35385;55.668;37.508;2023-08-06T05:11:46;99612.47;;;28.66;100.00
36600;BME280;35385;55.668;37.508;2023-08-06T05:12:47;99616.09;;;29.11;100.00
36600;BME280;35385;55.668;37.508;2023-08-06T05:13:47;99607.56;;;28.96;100.00
36600;BME280;35385;55.668;37.508;2023-08-06T05:14:48;99608.41;;;28.97;100.00
36600;BME280;35385;55.668;37.508;2023-08-06T05:15:49;99550.44;;;28.70;100.00
36600;BME280;35385;55.668;37.508;2023-08-06T05:16:49;99609.03;;;28.87;100.00
36600;BME280;35385;55.668;37.508;2023-08-06T05:17:50;99598.81;;;28.82;100.00
36600;BME280;35385;55.668;37.508;2023-08-06T05:18:50;99607.16;;;28.76;100.00
36600;BME280;35385;55.668;37.508;2023-08-06T05:19:51;99593.72;;;28.91;100.00
36600;BME280;35385;55.668;37.508;2023-08-06T05:20:51;99610.16;;;29.19;100.00